Time;durP1;ratioP1;P1;durP2;ratioP2;P2;SDS_P1;SDS_P2;PMS_P1;PMS_P2;Temp;Humidity;BMP_temperature;BMP_pressure;BME280_temperature;BME280_humidity;BME280_pressure;Samples;Min_cycle;Max_cycle;Signal;HPM_P1;HPM_P2
2022/11/06 00:01:26;;;;;;;;;27.33;26.33;;;;;7.93;83.87;99609.19;5033938;28;45635;-76
2022/11/06 00:03:52;;;;;;;;;30.67;25.33;;;;;7.93;83.74;99601.31;5035945;28;45812;-77
2022/11/06 00:09:06;;;;;;;;;29.00;27.00;;;;;7.94;83.94;99615.31;5036072;28;45708;-77
2022/11/06 00:11:31;;;;;;;;;31.67;27.67;;;;;7.94;83.80;99610.06;5035625;28;45404;-77
2022/11/06 00:13:59;;;;;;;;;30.33;26.00;;;;;7.94;83.91;99605.69;5033666;28;45712;-76
2022/11/06 00:16:24;;;;;;;;;28.33;24.00;;;;;7.95;83.91;99610.03;5030684;28;45551;-77
2022/11/06 00:18:51;;;;;;;;;27.00;22.00;;;;;7.95;83.83;99599.53;5035874;28;46260;-78
2022/11/06 00:21:19;;;;;;;;;30.00;25.00;;;;;7.96;84.06;99598.63;5031918;28;45375;-77
2022/11/06 00:23:46;;;;;;;;;22.00;20.67;;;;;7.95;84.00;99607.41;5040367;28;45461;-77
2022/11/06 00:26:14;;;;;;;;;31.00;26.67;;;;;7.97;84.14;99610.00;5037197;28;45343;-77
2022/11/06 00:28:40;;;;;;;;;28.67;24.33;;;;;7.99;84.00;99605.59;5034234;28;45488;-77
2022/11/06 00:31:09;;;;;;;;;29.33;27.00;;;;;8.00;83.95;99604.69;5037294;28;45791;-77
2022/11/06 00:33:35;;;;;;;;;25.00;24.00;;;;;8.01;83.93;99602.03;5035673;28;45512;-77
2022/11/06 00:36:05;;;;;;;;;21.00;18.33;;;;;8.00;83.96;99597.69;5034992;28;45472;-77
2022/11/06 00:38:31;;;;;;;;;30.33;27.33;;;;;8.01;83.87;99588.91;5032495;28;46532;-77
2022/11/06 00:41:00;;;;;;;;;33.67;28.00;;;;;8.00;83.90;99586.31;5039249;28;45423;-77
2022/11/06 00:43:26;;;;;;;;;28.33;25.00;;;;;7.98;83.78;99591.59;5039745;28;45393;-77
2022/11/06 00:45:51;;;;;;;;;30.67;22.67;;;;;7.97;83.83;99599.50;5034526;28;45302;-77
2022/11/06 00:48:16;;;;;;;;;26.00;20.67;;;;;7.93;83.69;99595.22;5030233;28;45609;-77
2022/11/06 00:50:42;;;;;;;;;21.67;21.33;;;;;7.90;83.91;99593.50;5040382;28;45408;-77
2022/11/06 00:53:07;;;;;;;;;30.00;26.00;;;;;7.87;83.78;99593.59;5040871;28;45375;-77
2022/11/06 00:55:32;;;;;;;;;19.33;18.67;;;;;7.83;83.88;99599.81;5042353;28;45495;-77
2022/11/06 00:57:58;;;;;;;;;28.67;24.00;;;;;7.79;83.87;99587.63;5035901;28;46145;-77
2022/11/06 01:00:23;;;;;;;;;26.33;24.00;;;;;7.78;84.03;99575.41;5033367;28;45468;-77
2022/11/06 01:02:48;;;;;;;;;24.00;22.00;;;;;7.76;84.28;99582.44;5032994;28;45972;-77
2022/11/06 01:05:14;;;;;;;;;25.00;24.33;;;;;7.74;84.23;99584.22;5035248;28;45373;-77
2022/11/06 01:07:40;;;;;;;;;24.67;19.67;;;;;7.71;83.88;99595.66;5040185;28;45428;-77
2022/11/06 01:10:06;;;;;;;;;32.00;26.33;;;;;7.71;84.06;99605.28;5034573;28;45512;-77
2022/11/06 01:12:33;;;;;;;;;24.33;22.67;;;;;7.69;84.51;99597.47;5034205;28;45483;-77
2022/11/06 01:14:59;;;;;;;;;21.33;20.00;;;;;7.67;84.20;99595.78;5030939;28;45561;-77
2022/11/06 01:17:24;;;;;;;;;27.00;23.67;;;;;7.66;84.29;99588.78;5034651;28;45405;-77
2022/11/06 01:19:50;;;;;;;;;25.00;20.33;;;;;7.66;84.43;99576.53;5035735;28;45417;-77
2022/11/06 01:22:16;;;;;;;;;24.00;18.33;;;;;7.67;84.32;99585.28;5047405;28;45715;-77
2022/11/06 01:24:42;;;;;;;;;28.00;24.33;;;;;7.67;84.49;99588.78;5035450;28;45512;-77
2022/11/06 01:27:07;;;;;;;;;34.00;28.00;;;;;7.67;84.52;99583.53;5038907;28;45493;-77
2022/11/06 01:29:33;;;;;;;;;30.00;26.67;;;;;7.68;84.57;99571.25;5036497;28;45430;-77
2022/11/06 01:31:59;;;;;;;;;26.67;23.33;;;;;7.68;84.52;99576.50;5039194;28;45509;-77
2022/11/06 01:34:24;;;;;;;;;27.33;25.00;;;;;7.68;84.46;99580.00;5030457;28;45855;-77
2022/11/06 01:36:50;;;;;;;;;26.33;23.33;;;;;7.67;84.32;99567.78;5036476;28;45447;-77
2022/11/06 01:39:15;;;;;;;;;21.33;21.33;;;;;7.65;84.43;99561.69;5030968;28;45536;-77
2022/11/06 01:41:44;;;;;;;;;20.33;20.33;;;;;7.63;84.64;99555.59;5048839;28;45451;-77
2022/11/06 01:44:34;;;;;;;;;23.33;23.00;;;;;7.63;84.49;99557.38;5025905;28;45405;-77
2022/11/06 01:47:02;;;;;;;;;16.67;16.00;;;;;7.62;84.42;99553.88;5029578;28;45535;-77
2022/11/06 01:49:32;;;;;;;;;23.67;22.00;;;;;7.60;84.63;99555.66;5030800;28;45334;-77
2022/11/06 01:52:03;;;;;;;;;21.67;19.33;;;;;7.61;84.45;99556.53;5036830;28;45589;-77
2022/11/06 01:54:33;;;;;;;;;21.67;18.33;;;;;7.60;84.61;99549.56;5032005;28;45417;-77
2022/11/06 01:57:00;;;;;;;;;18.33;17.67;;;;;7.60;84.50;99546.94;5029923;28;45710;-77
2022/11/06 01:59:29;;;;;;;;;22.33;18.00;;;;;7.60;84.88;99552.19;5038389;28;45435;-77
2022/11/06 02:01:54;;;;;;;;;20.33;18.00;;;;;7.62;84.66;99547.75;5042966;28;45661;-77
2022/11/06 02:04:23;;;;;;;;;26.67;23.33;;;;;7.61;84.52;99543.41;5041099;28;45830;-77
2022/11/06 02:06:49;;;;;;;;;24.00;20.33;;;;;7.59;84.28;99543.44;5039784;28;45480;-77
2022/11/06 02:09:15;;;;;;;;;17.33;16.33;;;;;7.58;84.58;99546.09;5035378;28;45519;-77
2022/11/06 02:12:02;;;;;;;;;25.00;22.33;;;;;7.57;84.59;99542.59;5027187;28;45561;-77
2022/11/06 02:14:44;;;;;;;;;23.67;21.33;;;;;7.58;84.56;99535.59;5010550;28;45899;-77
2022/11/06 02:17:31;;;;;;;;;24.33;23.00;;;;;7.53;84.38;99527.84;5036647;28;46568;-78
2022/11/06 02:20:17;;;;;;;;;25.33;24.00;;;;;7.52;84.29;99530.50;5027277;28;45356;-77
2022/11/06 02:22:57;;;;;;;;;26.00;22.00;;;;;7.47;84.25;99525.34;5007916;28;45484;-77
2022/11/06 02:25:58;;;;;;;;;27.67;24.33;;;;;7.45;84.38;99521.88;5030834;28;45497;-77
2022/11/06 02:28:29;;;;;;;;;27.67;24.67;;;;;7.43;84.50;99514.94;5021347;28;45388;-77
2022/11/06 02:30:59;;;;;;;;;23.00;23.00;;;;;7.39;84.30;99514.13;5030928;28;45460;-76
2022/11/06 02:33:34;;;;;;;;;23.33;22.00;;;;;7.37;84.59;99509.84;5028174;28;45355;-77
2022/11/06 02:36:11;;;;;;;;;23.67;22.00;;;;;7.34;84.62;99510.78;5035334;28;45425;-77
2022/11/06 02:38:41;;;;;;;;;23.67;21.67;;;;;7.31;84.46;99511.69;5032946;28;45460;-77
2022/11/06 02:41:13;;;;;;;;;24.00;21.00;;;;;7.29;84.55;99508.22;5040052;28;45481;-77
2022/11/06 02:43:43;;;;;;;;;23.33;21.67;;;;;7.27;84.64;99502.16;5043143;28;45628;-77
2022/11/06 02:46:17;;;;;;;;;24.00;20.67;;;;;7.26;84.66;99504.81;5041579;28;45373;-77
2022/11/06 02:49:00;;;;;;;;;29.67;22.00;;;;;7.23;84.82;99508.34;5038010;28;47294;-76
2022/11/06 02:51:29;;;;;;;;;18.00;18.00;;;;;7.22;84.74;99495.25;5044172;28;45575;-77
2022/11/06 02:53:59;;;;;;;;;25.33;22.00;;;;;7.20;84.66;99500.56;5039155;28;45460;-78
2022/11/06 02:56:30;;;;;;;;;25.67;22.67;;;;;7.16;85.05;99501.53;5043729;28;45508;-76
2022/11/06 02:59:05;;;;;;;;;29.00;23.67;;;;;7.15;85.09;99499.78;5039321;28;46461;-77
2022/11/06 03:01:54;;;;;;;;;26.33;22.67;;;;;7.14;85.12;99500.69;5039755;28;45536;-76
2022/11/06 03:04:29;;;;;;;;;18.00;18.00;;;;;7.13;85.19;99501.56;5039962;28;45464;-77
2022/11/06 03:06:57;;;;;;;;;23.33;23.00;;;;;7.14;85.18;99498.06;5038566;28;45769;-76
2022/11/06 03:09:27;;;;;;;;;21.33;21.00;;;;;7.11;85.09;99500.75;5034907;28;46471;-76
2022/11/06 03:12:20;;;;;;;;;19.67;17.33;;;;;7.10;85.08;99495.53;5045412;28;45565;-77
2022/11/06 03:14:59;;;;;;;;;25.67;22.00;;;;;7.09;85.32;99502.53;5038860;28;45388;-77
2022/11/06 03:17:53;;;;;;;;;21.67;21.00;;;;;7.07;85.45;99495.56;5030753;28;45448;-77
2022/11/06 03:20:34;;;;;;;;;22.67;19.67;;;;;7.05;85.53;99494.75;5035395;28;45526;-77
2022/11/06 03:23:09;;;;;;;;;23.00;21.00;;;;;7.04;85.64;99503.53;5038737;28;45404;-78
2022/11/06 03:25:44;;;;;;;;;20.67;17.67;;;;;7.02;85.60;99500.94;5040069;28;45381;-78
2022/11/06 03:28:14;;;;;;;;;22.67;18.00;;;;;7.02;85.68;99505.31;5047890;28;45373;-78
2022/11/06 03:30:49;;;;;;;;;23.33;21.33;;;;;7.03;85.64;99507.91;5045200;28;45444;-77
2022/11/06 03:33:19;;;;;;;;;23.00;18.00;;;;;7.04;85.53;99503.53;5033395;28;45491;-77
2022/11/06 03:35:55;;;;;;;;;14.67;13.33;;;;;7.05;85.73;99494.75;5039934;28;45333;-77
2022/11/06 03:38:29;;;;;;;;;24.00;21.67;;;;;7.05;85.72;99490.38;5034935;28;45455;-77
2022/11/06 03:41:20;;;;;;;;;26.33;22.00;;;;;7.06;85.56;99478.13;5033044;28;45330;-78
2022/11/06 03:43:48;;;;;;;;;21.00;21.00;;;;;7.05;85.55;99479.88;5032861;28;45479;-77
2022/11/06 03:46:18;;;;;;;;;21.00;19.67;;;;;7.04;85.47;99482.56;5042030;28;45410;-77
2022/11/06 03:49:01;;;;;;;;;24.67;21.67;;;;;7.03;85.47;99491.31;5033950;28;45472;-78
2022/11/06 03:51:31;;;;;;;;;11.67;10.00;;;;;7.03;85.78;99492.19;5036309;28;45392;-77
2022/11/06 03:54:05;;;;;;;;;18.33;17.00;;;;;7.02;85.86;99493.06;5038550;28;45502;-77
2022/11/06 03:56:43;;;;;;;;;20.33;18.00;;;;;7.03;85.99;99502.66;5049467;28;45438;-78
2022/11/06 03:59:11;;;;;;;;;23.00;21.00;;;;;7.03;85.86;99502.66;5042177;28;45652;-78
2022/11/06 04:01:43;;;;;;;;;22.67;19.33;;;;;7.02;85.98;99497.44;5027252;28;45422;-78
2022/11/06 04:04:23;;;;;;;;;22.33;20.33;;;;;7.01;85.87;99504.44;5028361;28;45419;-77
2022/11/06 04:07:04;;;;;;;;;22.33;21.00;;;;;7.00;85.91;99500.97;5036225;28;45501;-78
2022/11/06 04:15:09;;;;;;;;;21.00;20.33;;;;;6.98;86.21;99515.00;5029573;28;45456;-78
2022/11/06 04:17:37;;;;;;;;;20.67;18.00;;;;;6.99;86.04;99521.97;5034709;28;45457;-77
2022/11/06 04:20:06;;;;;;;;;27.00;22.00;;;;;6.98;86.11;99531.59;5036048;28;45376;-77
2022/11/06 04:22:46;;;;;;;;;25.00;22.33;;;;;6.98;86.33;99533.34;5035055;28;45477;-78
2022/11/06 04:28:16;;;;;;;;;22.00;18.33;;;;;6.96;85.95;99522.00;5035518;28;45418;-77
2022/11/06 04:31:09;;;;;;;;;20.00;17.67;;;;;6.96;86.14;99522.88;5028438;28;45509;-77
2022/11/06 04:33:54;;;;;;;;;20.00;18.67;;;;;6.94;86.18;99521.19;5026756;28;45326;-77
2022/11/06 04:36:45;;;;;;;;;19.67;19.67;;;;;6.95;86.14;99512.41;5044468;28;45403;-77
2022/11/06 04:39:37;;;;;;;;;18.67;17.00;;;;;6.94;86.35;99510.69;5037036;28;45503;-77
2022/11/06 04:42:19;;;;;;;;;20.67;19.33;;;;;6.92;85.99;99505.47;5034176;28;46003;-77
2022/11/06 04:44:51;;;;;;;;;15.33;15.33;;;;;6.89;86.32;99508.16;5031011;28;45610;-78
2022/11/06 04:47:22;;;;;;;;;14.67;13.33;;;;;6.88;86.25;99502.94;5036654;28;45591;-77
2022/11/06 04:49:51;;;;;;;;;18.33;18.33;;;;;6.85;86.31;99498.66;5032572;28;45645;-78
2022/11/06 04:52:25;;;;;;;;;18.67;18.67;;;;;6.81;86.35;99494.34;5035212;28;45502;-77
2022/11/06 04:54:52;;;;;;;;;16.33;16.33;;;;;6.80;86.06;99491.75;5031255;28;46195;-77
2022/11/06 04:57:17;;;;;;;;;17.67;15.33;;;;;6.76;86.25;99488.31;5029367;28;45570;-77
2022/11/06 04:59:43;;;;;;;;;16.00;14.00;;;;;6.74;86.04;99491.84;5030927;28;45569;-77
2022/11/06 05:02:09;;;;;;;;;17.00;14.33;;;;;6.71;86.34;99484.03;5028860;28;45305;-77
2022/11/06 05:04:35;;;;;;;;;14.33;14.33;;;;;6.71;86.58;99490.16;5038810;28;46228;-77
2022/11/06 05:07:01;;;;;;;;;16.00;15.33;;;;;6.72;86.53;99485.78;5027953;28;45441;-78
2022/11/06 05:09:26;;;;;;;;;16.33;15.00;;;;;6.71;86.71;99482.28;5028606;28;45423;-78
2022/11/06 05:11:52;;;;;;;;;18.33;16.33;;;;;6.72;86.73;99473.53;5035468;28;45362;-77
2022/11/06 05:14:17;;;;;;;;;16.00;16.00;;;;;6.72;86.62;99476.16;5027968;28;45490;-78
2022/11/06 05:16:42;;;;;;;;;17.33;16.00;;;;;6.72;86.45;99473.53;5034214;28;45409;-77
2022/11/06 05:19:08;;;;;;;;;18.33;16.00;;;;;6.70;86.26;99470.13;5029120;28;46068;-78
2022/11/06 05:24:17;;;;;;;;;16.67;15.67;;;;;6.62;86.55;99461.53;5034786;28;45770;-78
2022/11/06 05:26:43;;;;;;;;;23.33;17.33;;;;;6.61;86.42;99462.41;5035224;28;45657;-77
2022/11/06 05:29:10;;;;;;;;;17.67;15.33;;;;;6.56;86.65;99452.00;5035699;28;45421;-77
2022/11/06 05:31:36;;;;;;;;;23.33;17.00;;;;;6.53;86.69;99452.09;5034536;28;45461;-77
2022/11/06 05:34:01;;;;;;;;;16.33;15.00;;;;;6.53;86.56;99448.59;5029224;28;45909;-78
2022/11/06 05:36:27;;;;;;;;;26.00;16.67;;;;;6.50;86.80;99438.19;5030234;28;45403;-78
2022/11/06 05:38:52;;;;;;;;;21.67;18.33;;;;;6.47;86.54;99436.47;5033804;28;45549;-78
2022/11/06 05:41:17;;;;;;;;;16.00;16.00;;;;;6.46;86.58;99436.50;5034390;28;45513;-78
2022/11/06 05:43:43;;;;;;;;;22.00;17.33;;;;;6.44;86.76;99422.56;5028165;28;46826;-78
2022/11/06 05:46:08;;;;;;;;;15.67;14.67;;;;;6.41;87.05;99415.63;5033576;28;45390;-78
2022/11/06 05:48:34;;;;;;;;;20.00;15.33;;;;;6.39;86.82;99421.78;5019792;28;46105;-78
2022/11/06 05:51:04;;;;;;;;;13.33;10.00;;;;;6.35;87.08;99413.16;5041630;28;45310;-77
2022/11/06 05:53:32;;;;;;;;;23.00;19.00;;;;;6.34;87.04;99406.19;5035249;28;45687;-78
2022/11/06 05:55:58;;;;;;;;;23.33;17.67;;;;;6.32;87.01;99402.72;5033712;28;45499;-78
2022/11/06 05:58:24;;;;;;;;;15.00;15.00;;;;;6.30;87.45;99400.13;5034264;28;45499;-77
2022/11/06 06:00:49;;;;;;;;;15.67;14.33;;;;;6.33;87.58;99403.59;5034257;28;45339;-77
2022/11/06 06:03:15;;;;;;;;;17.00;14.67;;;;;6.33;87.42;99399.22;5025087;28;45650;-77
2022/11/06 06:05:41;;;;;;;;;21.00;15.33;;;;;6.35;87.64;99389.59;5034061;28;46071;-78
2022/11/06 06:08:06;;;;;;;;;16.00;13.67;;;;;6.38;87.51;99399.97;5033537;28;45323;-77
2022/11/06 06:10:32;;;;;;;;;15.00;13.67;;;;;6.41;87.71;99391.19;5025859;28;45325;-77
2022/11/06 06:12:57;;;;;;;;;12.00;12.00;;;;;6.43;87.43;99381.56;5033239;28;45683;-77
2022/11/06 06:15:23;;;;;;;;;18.00;16.00;;;;;6.45;87.47;99395.50;5038182;28;45408;-77
2022/11/06 06:17:48;;;;;;;;;16.33;14.00;;;;;6.50;87.08;99398.91;5033818;28;45468;-77
2022/11/06 06:20:14;;;;;;;;;16.00;13.33;;;;;6.51;86.67;99398.88;5034320;28;45362;-78
2022/11/06 06:22:39;;;;;;;;;18.33;14.67;;;;;6.51;86.82;99401.50;5032367;28;47213;-78
2022/11/06 06:25:05;;;;;;;;;19.00;14.67;;;;;6.53;86.78;99398.84;5034101;28;45396;-78
2022/11/06 06:27:31;;;;;;;;;15.67;15.00;;;;;6.51;86.38;99391.00;5038427;28;45444;-78
2022/11/06 06:29:56;;;;;;;;;11.67;11.67;;;;;6.48;86.95;99385.84;5024084;28;45499;-78
2022/11/06 06:32:21;;;;;;;;;13.67;12.33;;;;;6.47;86.37;99384.09;5030475;28;46086;-78
2022/11/06 06:34:47;;;;;;;;;11.33;11.33;;;;;6.47;86.82;99378.88;5031400;28;45437;-77
2022/11/06 06:37:12;;;;;;;;;16.00;12.67;;;;;6.47;86.78;99380.63;5034039;28;45884;-77
2022/11/06 06:39:38;;;;;;;;;10.00;8.67;;;;;6.46;86.64;99379.75;5033922;28;45853;-77
2022/11/06 06:42:03;;;;;;;;;19.67;18.33;;;;;6.42;86.37;99383.31;5031604;28;45443;-77
2022/11/06 06:44:29;;;;;;;;;19.00;18.67;;;;;6.37;86.75;99384.31;5027315;28;45514;-77
2022/11/06 06:46:54;;;;;;;;;21.33;16.33;;;;;6.35;86.73;99384.34;5031924;28;45668;-77
2022/11/06 06:49:19;;;;;;;;;17.00;13.33;;;;;6.35;86.69;99384.34;5026760;28;45484;-77
2022/11/06 06:51:48;;;;;;;;;21.00;15.33;;;;;6.35;86.80;99380.88;5032816;28;46630;-78
2022/11/06 06:54:13;;;;;;;;;13.67;12.33;;;;;6.35;86.88;99384.34;5028691;28;45443;-77
2022/11/06 06:56:39;;;;;;;;;15.33;13.00;;;;;6.35;87.01;99383.47;5033614;28;45382;-77
2022/11/06 06:59:05;;;;;;;;;14.33;14.00;;;;;6.37;87.12;99385.16;5042420;28;45400;-78
2022/11/06 07:01:30;;;;;;;;;17.67;17.67;;;;;6.40;87.05;99394.72;5036788;28;46276;-77
2022/11/06 07:03:56;;;;;;;;;20.33;15.67;;;;;6.41;86.94;99386.81;5030134;28;45420;-77
2022/11/06 07:06:21;;;;;;;;;17.33;15.00;;;;;6.42;87.00;99391.16;5033216;28;45526;-78
2022/11/06 07:08:46;;;;;;;;;25.33;20.67;;;;;6.46;86.95;99391.97;5031090;28;45333;-78
2022/11/06 07:11:12;;;;;;;;;20.00;19.00;;;;;6.48;86.86;99392.81;5031540;28;47161;-78
2022/11/06 07:13:38;;;;;;;;;15.67;14.00;;;;;6.51;86.82;99390.16;5027717;28;45837;-67
2022/11/06 07:16:04;;;;;;;;;15.67;15.67;;;;;6.57;86.62;99383.00;5030304;28;45460;-67
2022/11/06 07:18:30;;;;;;;;;19.00;18.67;;;;;6.62;86.30;99390.78;5030051;28;45497;-68
2022/11/06 07:20:55;;;;;;;;;17.00;16.33;;;;;6.66;86.45;99397.69;5038989;28;45948;-67
2022/11/06 07:23:21;;;;;;;;;15.33;13.67;;;;;6.70;86.11;99398.50;5039314;28;45402;-67
2022/11/06 07:25:53;;;;;;;;;18.33;17.33;;;;;6.74;86.36;99408.00;5034868;28;45531;-67
2022/11/06 07:28:19;;;;;;;;;22.67;21.00;;;;;6.80;85.99;99407.91;5034645;28;45344;-67
2022/11/06 07:30:45;;;;;;;;;21.33;19.00;;;;;6.83;85.80;99398.22;5036610;28;46419;-67
2022/11/06 07:33:10;;;;;;;;;16.00;16.00;;;;;6.86;85.48;99398.16;5036299;28;45397;-67
2022/11/06 07:35:35;;;;;;;;;18.67;16.33;;;;;6.88;85.48;99401.59;5043733;28;46009;-67
2022/11/06 07:38:05;;;;;;;;;20.00;17.33;;;;;6.91;85.45;99404.16;5031701;28;45356;-67
2022/11/06 07:40:32;;;;;;;;;17.33;13.67;;;;;6.93;85.20;99391.88;5018440;28;45530;-67
2022/11/06 07:43:05;;;;;;;;;17.67;17.33;;;;;6.96;85.06;99385.72;5041009;28;45392;-66
2022/11/06 07:45:31;;;;;;;;;17.67;16.00;;;;;7.02;85.28;99389.97;5038481;28;45509;-67
2022/11/06 07:47:57;;;;;;;;;12.67;11.00;;;;;7.07;85.00;99390.72;5029862;28;45811;-67
2022/11/06 07:50:23;;;;;;;;;10.67;9.67;;;;;7.12;85.00;99383.63;5033950;28;45500;-67
2022/11/06 07:52:48;;;;;;;;;11.67;11.67;;;;;7.17;84.73;99387.88;5043006;28;45470;-66
2022/11/06 07:55:14;;;;;;;;;13.00;11.67;;;;;7.25;84.50;99383.31;5035351;28;45713;-67
2022/11/06 07:57:40;;;;;;;;;12.00;11.00;;;;;7.32;84.37;99378.81;5051181;28;45552;-67
2022/11/06 08:00:06;;;;;;;;;11.00;11.00;;;;;7.40;84.18;99376.00;5036461;28;45482;-67
2022/11/06 08:02:31;;;;;;;;;13.33;12.33;;;;;7.45;84.07;99382.88;5033270;28;45327;-66
2022/11/06 08:04:57;;;;;;;;;15.00;14.00;;;;;7.54;83.88;99376.56;5033290;28;45498;-67
2022/11/06 08:07:22;;;;;;;;;11.00;11.00;;;;;7.60;83.71;99374.63;5032672;28;45391;-67
2022/11/06 08:09:48;;;;;;;;;11.00;10.67;;;;;7.67;83.32;99384.09;5045820;28;45435;-66
2022/11/06 08:12:13;;;;;;;;;15.33;14.00;;;;;7.71;83.21;99375.22;5035701;28;45347;-66
2022/11/06 08:14:39;;;;;;;;;15.00;15.00;;;;;7.78;83.29;99378.56;5035277;28;45546;-66
2022/11/06 08:17:05;;;;;;;;;16.00;12.33;;;;;7.83;82.99;99374.06;5034759;28;45472;-67
2022/11/06 08:19:30;;;;;;;;;18.67;17.00;;;;;7.88;82.82;99372.19;5032945;28;46108;-67
2022/11/06 08:21:56;;;;;;;;;14.67;12.33;;;;;7.93;82.42;99366.81;5034170;28;45452;-67
2022/11/06 08:24:21;;;;;;;;;15.33;13.33;;;;;7.99;82.16;99369.31;5027668;28;45500;-66
2022/11/06 08:26:47;;;;;;;;;14.67;12.33;;;;;8.02;81.83;99364.84;5040113;28;45424;-67
2022/11/06 08:29:12;;;;;;;;;14.67;12.00;;;;;8.05;81.63;99364.72;5032184;28;45827;-66
2022/11/06 08:31:38;;;;;;;;;7.67;7.67;;;;;8.07;81.41;99362.94;5024741;28;45423;-66
2022/11/06 08:34:03;;;;;;;;;11.00;11.00;;;;;8.06;81.55;99350.72;5028676;28;45530;-67
2022/11/06 08:36:29;;;;;;;;;17.00;16.33;;;;;8.06;81.56;99347.22;5035566;28;45381;-67
2022/11/06 08:38:54;;;;;;;;;13.33;12.67;;;;;8.09;81.74;99352.41;5032882;28;45644;-67
2022/11/06 08:41:20;;;;;;;;;9.00;8.67;;;;;8.15;81.77;99356.63;5038305;28;45454;-67
2022/11/06 08:43:50;;;;;;;;;16.33;11.67;;;;;8.21;81.71;99352.06;5032498;28;45480;-67
2022/11/06 08:46:15;;;;;;;;;18.00;11.00;;;;;8.27;81.44;99346.66;5023836;28;45494;-67
2022/11/06 08:48:40;;;;;;;;;13.00;12.67;;;;;8.30;80.92;99350.97;5026286;28;45447;-67
2022/11/06 08:51:06;;;;;;;;;12.00;11.00;;;;;8.37;80.68;99350.81;5045125;28;45538;-67
2022/11/06 08:53:32;;;;;;;;;9.50;8.50;;;;;8.45;80.29;99344.47;5035432;28;45981;-67
2022/11/06 08:55:57;;;;;;;;;9.75;8.75;;;;;8.52;80.15;99341.63;5033953;28;45370;-67
2022/11/06 08:58:22;;;;;;;;;10.33;10.33;;;;;8.63;79.80;99329.03;5037062;28;46047;-67
2022/11/06 09:00:48;;;;;;;;;15.00;10.50;;;;;8.72;79.35;99327.88;5034377;28;45391;-67
2022/11/06 09:03:18;;;;;;;;;8.00;8.00;;;;;8.82;79.37;99328.50;5031855;28;45577;-66
2022/11/06 09:05:44;;;;;;;;;12.00;11.67;;;;;8.92;79.01;99328.16;5038549;28;45640;-67
2022/11/06 09:08:10;;;;;;;;;10.00;9.50;;;;;9.01;78.44;99327.03;5042120;28;45627;-67
2022/11/06 09:10:37;;;;;;;;;10.33;10.00;;;;;9.07;78.46;99319.81;5032107;28;45527;-67
2022/11/06 09:13:03;;;;;;;;;12.00;11.33;;;;;9.14;78.02;99324.88;5033122;28;45341;-67
2022/11/06 09:15:28;;;;;;;;;14.25;11.25;;;;;9.21;77.93;99322.03;5033180;28;45501;-67
2022/11/06 09:17:54;;;;;;;;;18.00;13.00;;;;;9.27;77.75;99323.59;5033676;28;45539;-67
2022/11/06 09:20:21;;;;;;;;;14.67;13.00;;;;;9.31;77.45;99314.69;5028919;28;45329;-67
2022/11/06 09:22:47;;;;;;;;;14.00;14.00;;;;;9.34;77.04;99310.22;5030013;28;45622;-67
2022/11/06 09:25:13;;;;;;;;;15.00;13.00;;;;;9.39;76.81;99304.78;5057095;28;45532;-67
2022/11/06 09:27:47;;;;;;;;;10.75;10.50;;;;;9.46;76.72;99308.94;5042721;28;46387;-67
2022/11/06 09:30:15;;;;;;;;;8.00;7.25;;;;;9.52;76.55;99316.66;5031587;28;45307;-67
2022/11/06 09:32:48;;;;;;;;;8.50;8.50;;;;;9.58;76.14;99307.66;5034097;28;45380;-67
2022/11/06 09:35:14;;;;;;;;;11.00;11.00;;;;;9.62;75.97;99314.56;5031631;28;45541;-66
2022/11/06 09:37:40;;;;;;;;;10.00;10.00;;;;;9.63;75.93;99311.03;5033442;28;45460;-67
2022/11/06 09:40:07;;;;;;;;;7.00;5.25;;;;;9.68;76.00;99306.47;5036889;28;45526;-67
2022/11/06 09:42:49;;;;;;;;;12.00;10.00;;;;;9.72;75.99;99311.56;5028889;28;45498;-67
2022/11/06 09:45:21;;;;;;;;;14.75;11.00;;;;;9.78;76.08;99311.38;5030884;28;45451;-66
2022/11/06 09:47:55;;;;;;;;;10.75;10.25;;;;;9.86;76.30;99295.31;5030943;28;47133;-67
2022/11/06 09:50:27;;;;;;;;;12.50;11.25;;;;;9.97;76.21;99308.09;5033167;28;45313;-66
2022/11/06 09:53:02;;;;;;;;;12.25;10.25;;;;;10.05;75.53;99312.19;5030394;28;45441;-67
2022/11/06 09:55:39;;;;;;;;;12.00;8.25;;;;;10.12;75.24;99302.28;5032205;28;45496;-67
2022/11/06 09:58:31;;;;;;;;;8.00;8.00;;;;;10.23;75.02;99301.94;5036135;28;46107;-67
2022/11/06 10:01:01;;;;;;;;;13.67;12.00;;;;;10.31;74.97;99292.84;5032211;28;45357;-66
2022/11/06 10:03:41;;;;;;;;;10.00;10.00;;;;;10.39;74.41;99297.88;5031294;28;45466;-67
2022/11/06 10:06:07;;;;;;;;;7.75;6.00;;;;;10.45;73.58;99303.75;5028504;28;45862;-67
2022/11/06 10:08:33;;;;;;;;;11.75;7.75;;;;;10.52;73.88;99293.84;5031551;28;46172;-67
2022/11/06 10:11:29;;;;;;;;;5.25;5.25;;;;;10.60;73.56;99290.91;5032999;28;45415;-67
2022/11/06 10:14:03;;;;;;;;;7.25;7.25;;;;;10.65;73.15;99292.47;5024692;28;45486;-66
2022/11/06 10:16:31;;;;;;;;;8.00;7.25;;;;;10.71;72.74;99289.63;5032359;28;45505;-67
2022/11/06 10:19:22;;;;;;;;;6.50;6.00;;;;;10.80;72.80;99289.25;5024218;28;47338;-67
2022/11/06 10:22:05;;;;;;;;;6.50;6.50;;;;;10.90;71.67;99280.97;5029849;28;45377;-67
2022/11/06 10:24:44;;;;;;;;;6.50;5.75;;;;;10.96;71.08;99278.09;5031919;28;45503;-67
2022/11/06 10:27:17;;;;;;;;;8.50;6.25;;;;;11.01;70.90;99268.25;5037595;28;45389;-67
2022/11/06 10:29:42;;;;;;;;;7.00;6.00;;;;;11.05;71.10;99272.50;5031425;28;45699;-67
2022/11/06 10:32:38;;;;;;;;;6.00;6.00;;;;;11.12;71.06;99269.53;5033854;28;45452;-66
2022/11/06 10:35:21;;;;;;;;;8.75;7.00;;;;;11.18;70.51;99274.56;5031572;28;45495;-66
2022/11/06 10:37:57;;;;;;;;;8.00;7.00;;;;;11.24;70.21;99268.16;5024310;28;45457;-67
2022/11/06 10:40:25;;;;;;;;;7.00;6.00;;;;;11.28;69.71;99263.63;5032204;28;45691;-67
2022/11/06 10:43:17;;;;;;;;;6.00;6.00;;;;;11.33;69.12;99262.53;5026662;28;45434;-67
2022/11/06 10:45:47;;;;;;;;;7.00;7.00;;;;;11.37;69.55;99258.84;5029276;28;45351;-67
2022/11/06 10:48:28;;;;;;;;;7.00;6.25;;;;;11.43;69.04;99253.28;5032588;28;45545;-67
2022/11/06 10:51:02;;;;;;;;;6.00;6.00;;;;;11.50;68.85;99256.56;5032465;28;45750;-67
2022/11/06 10:53:55;;;;;;;;;6.75;6.25;;;;;11.55;68.30;99257.22;5031163;28;45385;-67
2022/11/06 10:56:29;;;;;;;;;8.00;6.50;;;;;11.61;68.41;99248.16;5048400;28;45513;-67
2022/11/06 10:58:55;;;;;;;;;9.00;7.25;;;;;11.67;67.94;99240.84;5033805;28;45490;-67
2022/11/06 11:01:21;;;;;;;;;8.25;7.25;;;;;11.73;67.82;99243.22;5034561;28;45672;-67
2022/11/06 11:03:48;;;;;;;;;9.75;8.00;;;;;11.80;67.53;99243.84;5042702;28;45476;-67
2022/11/06 11:06:13;;;;;;;;;8.25;7.50;;;;;11.88;67.09;99232.06;5035947;28;45378;-67
2022/11/06 11:08:44;;;;;;;;;10.00;8.75;;;;;11.98;66.41;99226.34;5030829;28;45485;-67
2022/11/06 11:11:12;;;;;;;;;6.00;6.00;;;;;12.07;66.24;99210.06;5041731;28;45678;-67
2022/11/06 11:13:38;;;;;;;;;9.00;7.40;;;;;12.15;66.37;99213.25;5031129;28;45390;-67
2022/11/06 11:16:04;;;;;;;;;5.00;5.00;;;;;12.24;65.87;99195.19;5035746;28;45462;-67
2022/11/06 11:18:33;;;;;;;;;6.00;6.00;;;;;12.32;65.41;99186.91;5036221;28;45555;-67
2022/11/06 11:21:17;;;;;;;;;8.75;7.00;;;;;12.38;64.95;99185.78;5035781;28;45317;-67
2022/11/06 11:23:43;;;;;;;;;7.25;7.25;;;;;12.42;65.18;99182.91;5026027;28;45516;-67
2022/11/06 11:26:29;;;;;;;;;9.75;8.50;;;;;12.47;65.21;99180.03;5036171;28;45458;-67
2022/11/06 11:28:58;;;;;;;;;8.50;7.25;;;;;12.48;65.20;99160.59;5032416;28;45559;-67
2022/11/06 11:31:32;;;;;;;;;10.50;8.00;;;;;12.53;65.47;99158.63;5023206;28;46749;-67
2022/11/06 11:34:01;;;;;;;;;6.40;6.40;;;;;12.57;64.88;99155.72;5035790;28;45448;-67
2022/11/06 11:36:59;;;;;;;;;7.50;7.50;;;;;12.64;64.74;99151.00;5035989;28;45409;-67
2022/11/06 11:39:29;;;;;;;;;5.25;4.75;;;;;12.68;64.61;99138.50;5027389;28;45428;-67
2022/11/06 11:42:14;;;;;;;;;6.25;6.00;;;;;12.70;64.27;99137.50;5034379;28;46541;-67
2022/11/06 11:44:40;;;;;;;;;8.75;7.00;;;;;12.73;64.24;99137.38;5032618;28;45405;-67
2022/11/06 11:47:20;;;;;;;;;7.75;7.75;;;;;12.78;64.03;99132.69;5035080;28;45294;-67
2022/11/06 11:49:45;;;;;;;;;8.25;7.00;;;;;12.82;63.87;99131.59;5031497;28;45454;-67
2022/11/06 11:52:15;;;;;;;;;6.75;6.25;;;;;12.88;63.84;99126.03;5029853;28;46435;-67
2022/11/06 11:54:48;;;;;;;;;7.25;6.75;;;;;12.93;63.45;99133.72;5029814;28;45457;-67